Time;durP1;ratioP1;P1;durP2;ratioP2;P2;SDS_P1;SDS_P2;PMS_P1;PMS_P2;Temp;Humidity;BMP_temperature;BMP_pressure;BME280_temperature;BME280_humidity;BME280_pressure;Samples;Min_cycle;Max_cycle;Signal;HPM_P1;HPM_P2
2021/11/23 00:00:00;;;;;;;13.52;9.65;;;;;;;0.44;100.00;96594.09;1024764;28;20159;-68
2021/11/23 00:00:31;;;;;;;13.68;9.14;;;;;;;0.44;100.00;96594.88;1026385;28;20034;-68
2021/11/23 00:01:01;;;;;;;17.40;10.55;;;;;;;0.44;100.00;96607.78;1021559;28;20031;-69
2021/11/23 00:01:32;;;;;;;12.45;8.80;;;;;;;0.46;100.00;96607.59;1018910;28;20023;-68
2021/11/23 00:02:02;;;;;;;16.98;10.48;;;;;;;0.48;100.00;96605.66;1014962;29;20660;-69
2021/11/23 00:02:33;;;;;;;15.88;10.52;;;;;;;0.47;100.00;96604.84;1019331;28;20024;-68
2021/11/23 00:03:04;;;;;;;16.65;10.45;;;;;;;0.50;100.00;96610.63;1024429;28;20126;-69
2021/11/23 00:03:35;;;;;;;13.74;9.74;;;;;;;0.52;100.00;96606.09;1027041;28;20031;-68
2021/11/23 00:04:05;;;;;;;13.60;9.65;;;;;;;0.43;100.00;96595.84;1034481;28;20170;-67
2021/11/23 00:04:36;;;;;;;11.73;8.60;;;;;;;0.45;100.00;96606.81;1032550;28;20778;-68
2021/11/23 00:05:07;;;;;;;14.88;9.77;;;;;;;0.39;100.00;96596.38;1030482;28;20037;-68
2021/11/23 00:05:37;;;;;;;15.54;9.84;;;;;;;0.37;100.00;96593.16;1030315;28;20038;-69
2021/11/23 00:06:08;;;;;;;14.27;8.88;;;;;;;0.43;100.00;96607.94;1023625;28;20118;-69
2021/11/23 00:06:38;;;;;;;14.57;9.70;;;;;;;0.44;100.00;96601.84;1026344;28;20031;-68
2021/11/23 00:07:09;;;;;;;13.93;9.70;;;;;;;0.42;100.00;96609.75;1022218;28;20070;-68
2021/11/23 00:07:39;;;;;;;14.85;9.95;;;;;;;0.45;100.00;96601.63;1018805;29;20082;-68
2021/11/23 00:08:10;;;;;;;19.70;11.07;;;;;;;0.47;100.00;96607.44;1023273;28;20041;-68
2021/11/23 00:08:41;;;;;;;14.52;9.98;;;;;;;0.49;100.00;96609.03;1018620;29;20039;-68
2021/11/23 00:09:11;;;;;;;15.02;9.57;;;;;;;0.49;100.00;96606.44;1022869;28;20329;-69
2021/11/23 00:09:42;;;;;;;13.68;9.60;;;;;;;0.42;100.00;96596.03;1022415;28;20039;-68
2021/11/23 00:10:12;;;;;;;12.98;9.85;;;;;;;0.47;100.00;96604.06;1023761;28;20027;-69
2021/11/23 00:10:43;;;;;;;15.63;10.70;;;;;;;0.44;100.00;96600.03;1030244;28;20540;-67
2021/11/23 00:11:14;;;;;;;14.30;9.73;;;;;;;0.44;100.00;96614.75;1025773;28;20026;-68
2021/11/23 00:11:44;;;;;;;12.73;9.35;;;;;;;0.44;100.00;96607.00;1026284;28;20035;-68
2021/11/23 00:12:15;;;;;;;14.10;9.98;;;;;;;0.49;100.00;96606.44;1034257;28;20052;-68
2021/11/23 00:12:45;;;;;;;15.60;10.23;;;;;;;0.47;100.00;96604.06;1030369;28;20045;-68
2021/11/23 00:13:16;;;;;;;15.63;10.60;;;;;;;0.37;100.00;96596.56;1023431;28;20546;-68
2021/11/23 00:13:47;;;;;;;15.27;9.15;;;;;;;0.43;100.00;96602.78;1018336;29;20039;-68
2021/11/23 00:14:17;;;;;;;14.55;10.55;;;;;;;0.44;100.00;96607.78;1018962;29;20032;-68
2021/11/23 00:14:48;;;;;;;17.17;9.57;;;;;;;0.48;100.00;96608.25;1018072;29;20042;-68
2021/11/23 00:15:18;;;;;;;14.10;8.73;;;;;;;0.39;100.00;96601.53;1023072;28;20035;-69
2021/11/23 00:15:49;;;;;;;16.67;10.45;;;;;;;0.42;100.00;96606.34;1019002;29;20024;-68
2021/11/23 00:16:19;;;;;;;13.57;9.80;;;;;;;0.42;100.00;96614.09;1022690;28;20027;-68
2021/11/23 00:16:50;;;;;;;13.88;9.48;;;;;;;0.39;100.00;96606.72;1018950;28;20028;-68
2021/11/23 00:17:20;;;;;;;13.85;9.23;;;;;;;0.41;100.00;96608.13;1014782;29;20039;-68
2021/11/23 00:17:50;;;;;;;14.20;9.90;;;;;;;0.44;100.00;96617.31;1022372;29;20039;-68
2021/11/23 00:18:21;;;;;;;13.15;9.75;;;;;;;0.45;100.00;96618.91;1021414;28;20039;-69
2021/11/23 00:18:51;;;;;;;14.55;9.48;;;;;;;0.45;100.00;96616.34;1022579;28;20533;-68
2021/11/23 00:19:22;;;;;;;15.63;10.63;;;;;;;0.43;100.00;96610.53;1022425;29;20027;-68
2021/11/23 00:19:52;;;;;;;15.88;9.30;;;;;;;0.45;100.00;96621.50;1018014;29;20423;-70
2021/11/23 00:20:23;;;;;;;14.10;9.95;;;;;;;0.47;100.00;96614.38;1026374;28;20042;-68
2021/11/23 00:20:56;;;;;;;13.85;10.00;;;;;;;0.42;100.00;96611.53;1026120;28;20033;-68
2021/11/23 00:21:27;;;;;;;14.66;9.52;;;;;;;0.36;100.00;96607.06;1018867;28;20035;-68
2021/11/23 00:21:57;;;;;;;15.10;10.40;;;;;;;0.45;100.00;96621.50;1025913;28;20509;-68
2021/11/23 00:22:27;;;;;;;14.13;9.90;;;;;;;0.46;100.00;96615.34;1026829;28;20041;-68
2021/11/23 00:22:58;;;;;;;16.05;9.40;;;;;;;0.39;100.00;96606.72;1022556;29;20019;-68
2021/11/23 00:23:29;;;;;;;13.90;9.60;;;;;;;0.37;100.00;96606.06;1021209;28;20026;-68
2021/11/23 00:24:00;;;;;;;15.13;9.27;;;;;;;0.40;100.00;96614.28;1018910;29;20281;-68
2021/11/23 00:24:30;;;;;;;15.60;9.82;;;;;;;0.38;100.00;96615.44;1025192;28;20057;-67
2021/11/23 00:25:01;;;;;;;13.50;9.35;;;;;;;0.42;100.00;96614.91;1019384;28;20036;-68
2021/11/23 00:25:32;;;;;;;18.65;10.80;;;;;;;0.43;100.00;96615.69;1022407;29;20026;-67
2021/11/23 00:26:02;;;;;;;14.40;9.90;;;;;;;0.41;100.00;96620.25;1010821;29;20111;-68
2021/11/23 00:26:33;;;;;;;15.98;9.70;;;;;;;0.33;100.00;96603.03;1011510;29;20052;-68
2021/11/23 00:27:04;;;;;;;14.95;10.90;;;;;;;0.44;100.00;96617.31;1026493;28;20039;-67
2021/11/23 00:27:34;;;;;;;16.28;10.42;;;;;;;0.43;100.00;96621.66;1026422;28;20014;-68
2021/11/23 00:28:05;;;;;;;13.18;9.25;;;;;;;0.39;100.00;96617.84;1022668;29;20443;-68
2021/11/23 00:28:35;;;;;;;14.07;9.68;;;;;;;0.42;100.00;96616.69;1013197;29;20510;-68
2021/11/23 00:29:06;;;;;;;14.38;8.75;;;;;;;0.44;100.00;96614.75;1014662;29;20038;-69
2021/11/23 00:29:37;;;;;;;14.30;9.82;;;;;;;0.42;100.00;96616.69;1016076;29;20036;-68
2021/11/23 00:30:08;;;;;;;14.52;10.15;;;;;;;0.42;100.00;96616.69;1022599;28;20027;-68
2021/11/23 00:30:38;;;;;;;13.26;9.32;;;;;;;0.43;100.00;96615.69;1022747;28;20034;-68
2021/11/23 00:31:09;;;;;;;17.45;9.98;;;;;;;0.41;100.00;96620.25;1021783;29;20132;-68
2021/11/23 00:31:39;;;;;;;14.68;9.73;;;;;;;0.40;100.00;96618.63;1019114;28;20506;-69
2021/11/23 00:32:10;;;;;;;13.95;10.07;;;;;;;0.27;100.00;96601.19;1026353;28;20111;-69
2021/11/23 00:32:40;;;;;;;16.45;10.35;;;;;;;0.38;100.00;96621.41;1022420;28;20194;-68
2021/11/23 00:33:14;;;;;;;17.48;10.06;;;;;;;0.33;100.00;96620.31;1026845;28;20026;-68
2021/11/23 00:33:44;;;;;;;14.50;9.38;;;;;;;0.31;100.00;96614.53;1025945;28;20034;-70
2021/11/23 00:34:15;;;;;;;15.77;10.10;;;;;;;0.29;100.00;96613.91;1023008;29;20062;-68
2021/11/23 00:34:45;;;;;;;13.63;8.93;;;;;;;0.32;100.00;96626.47;1023003;29;20169;-68
2021/11/23 00:35:16;;;;;;;14.52;10.38;;;;;;;0.27;100.00;96615.84;1020555;29;20023;-68
2021/11/23 00:35:46;;;;;;;15.68;10.60;;;;;;;0.29;100.00;96622.44;1021674;29;20024;-68
2021/11/23 00:36:17;;;;;;;13.27;9.02;;;;;;;0.30;100.00;96620.66;1021700;28;20463;-68
2021/11/23 00:36:47;;;;;;;14.13;10.43;;;;;;;0.26;100.00;96614.25;1025774;28;20599;-67
2021/11/23 00:37:18;;;;;;;14.35;10.45;;;;;;;0.28;100.00;96625.22;1018662;28;20035;-67
2021/11/23 00:37:50;;;;;;;16.48;9.52;;;;;;;0.29;100.00;96626.81;1022595;29;20031;-68
2021/11/23 00:38:20;;;;;;;16.10;10.62;;;;;;;0.26;100.00;96614.25;1022425;29;20023;-68
2021/11/23 00:38:51;;;;;;;17.90;11.13;;;;;;;0.31;100.00;96624.88;1022043;28;20106;-68
2021/11/23 00:39:21;;;;;;;18.30;11.40;;;;;;;0.31;100.00;96622.28;1022440;29;20023;-70
2021/11/23 00:39:52;;;;;;;14.57;10.27;;;;;;;0.27;100.00;96618.44;1014434;29;20495;-68
2021/11/23 00:40:22;;;;;;;17.40;10.77;;;;;;;0.23;100.00;96602.50;1014426;29;20063;-67
2021/11/23 00:40:53;;;;;;;14.13;10.13;;;;;;;0.28;100.00;96620.84;1014214;29;20035;-67
2021/11/23 00:41:24;;;;;;;14.50;10.50;;;;;;;0.21;100.00;96615.59;1017977;29;20032;-66
2021/11/23 00:41:54;;;;;;;16.58;10.40;;;;;;;0.33;100.00;96628.06;1019447;28;20557;-67
2021/11/23 00:42:25;;;;;;;15.57;10.70;;;;;;;0.33;100.00;96625.47;1026106;28;20118;-68
2021/11/23 00:42:57;;;;;;;14.35;9.38;;;;;;;0.33;100.00;96622.91;1021886;28;20041;-68
2021/11/23 00:43:29;;;;;;;16.76;10.98;;;;;;;0.31;100.00;96611.97;1018729;29;20020;-68
2021/11/23 00:43:59;;;;;;;12.18;8.80;;;;;;;0.25;100.00;96620.41;1015704;29;20032;-68
2021/11/23 00:44:30;;;;;;;14.13;8.73;;;;;;;0.23;100.00;96618.81;1018936;29;20059;-68
2021/11/23 00:45:00;;;;;;;13.63;8.43;;;;;;;0.19;100.00;96612.38;1021411;28;20509;-67
2021/11/23 00:45:35;;;;;;;11.85;8.80;;;;;;;0.19;100.00;96617.53;1024907;28;20090;-68
2021/11/23 00:46:06;;;;;;;16.34;9.96;;;;;;;0.22;100.00;96621.56;1026565;28;20029;-68
2021/11/23 00:46:36;;;;;;;13.20;9.50;;;;;;;0.22;100.00;96617.19;1030330;28;20460;-68
2021/11/23 00:47:07;;;;;;;12.63;9.80;;;;;;;0.10;100.00;96610.03;1029493;28;20026;-68
2021/11/23 00:47:38;;;;;;;12.75;9.57;;;;;;;0.15;100.00;96608.53;1033804;28;20010;-68
2021/11/23 00:48:09;;;;;;;13.34;8.58;;;;;;;0.19;100.00;96617.53;1038254;28;20484;-68
2021/11/23 00:48:39;;;;;;;12.75;8.85;;;;;;;0.11;100.00;96612.47;1030608;28;20031;-69
2021/11/23 00:49:10;;;;;;;11.43;8.77;;;;;;;0.14;100.00;96619.84;1016382;29;20028;-68
2021/11/23 00:49:41;;;;;;;13.22;9.24;;;;;;;0.19;100.00;96622.69;1018385;29;20561;-68
2021/11/23 00:50:12;;;;;;;16.42;9.93;;;;;;;0.15;100.00;96613.72;1022529;29;20055;-69
2021/11/23 00:50:42;;;;;;;13.35;9.73;;;;;;;0.21;100.00;96628.50;1018250;29;20028;-68
2021/11/23 00:51:13;;;;;;;14.95;10.10;;;;;;;0.18;100.00;96615.94;1016629;29;20024;-70
2021/11/23 00:51:43;;;;;;;12.70;9.40;;;;;;;0.19;100.00;96617.53;1022363;29;20058;-68
2021/11/23 00:52:18;;;;;;;13.35;8.90;;;;;;;0.20;100.00;96623.50;1018499;29;20012;-68
2021/11/23 00:52:49;;;;;;;12.76;8.72;;;;;;;0.18;100.00;96623.69;1024993;28;20023;-69
2021/11/23 00:53:20;;;;;;;13.20;9.38;;;;;;;0.17;100.00;96624.66;1026273;28;20031;-68
2021/11/23 00:53:50;;;;;;;11.08;8.04;;;;;;;0.11;100.00;96620.19;1026520;28;20462;-68
2021/11/23 00:54:21;;;;;;;12.60;8.23;;;;;;;0.12;100.00;96615.84;1018239;29;20032;-68
2021/11/23 00:54:51;;;;;;;14.27;8.70;;;;;;;0.15;100.00;96618.06;1022360;29;20442;-68
2021/11/23 00:55:21;;;;;;;12.10;8.63;;;;;;;0.13;100.00;96617.44;1026439;28;20062;-68
2021/11/23 00:55:52;;;;;;;11.52;8.20;;;;;;;0.15;100.00;96625.81;1021846;29;20034;-66
2021/11/23 00:56:22;;;;;;;18.63;10.80;;;;;;;0.08;100.00;96617.16;1018444;29;20110;-68
2021/11/23 00:56:53;;;;;;;11.73;8.05;;;;;;;-0.05;100.00;96597.13;1026410;28;20027;-68
2021/11/23 00:57:23;;;;;;;12.15;8.18;;;;;;;0.07;100.00;96618.94;1026301;28;20047;-68
2021/11/23 00:57:54;;;;;;;14.48;8.35;;;;;;;0.05;100.00;96618.31;1026218;28;20019;-68
2021/11/23 00:58:25;;;;;;;12.13;8.25;;;;;;;0.11;100.00;96629.72;1018521;29;20030;-66
2021/11/23 00:58:55;;;;;;;13.55;9.25;;;;;;;0.13;100.00;96623.38;1018303;29;20059;-69
2021/11/23 00:59:26;;;;;;;11.73;8.35;;;;;;;0.11;100.00;96619.41;1018065;29;20027;-70
2021/11/23 00:59:56;;;;;;;12.95;8.23;;;;;;;0.14;100.00;96627.59;1026426;28;20030;-68
2021/11/23 01:00:29;;;;;;;12.60;8.48;;;;;;;0.16;100.00;96627.41;1026309;28;20074;-68
2021/11/23 01:01:00;;;;;;;11.46;7.74;;;;;;;0.13;100.00;96625.97;1021607;28;20102;-67
2021/11/23 01:01:31;;;;;;;13.45;8.50;;;;;;;0.08;100.00;96620.53;1019237;28;20031;-68
2021/11/23 01:02:01;;;;;;;11.48;8.38;;;;;;;0.15;100.00;96626.59;1031040;28;20106;-67
2021/11/23 01:02:32;;;;;;;11.75;8.48;;;;;;;0.14;100.00;96624.22;1030319;28;20026;-67
2021/11/23 01:03:02;;;;;;;13.45;8.60;;;;;;;0.12;100.00;96631.31;1026100;28;20073;-67
2021/11/23 01:03:33;;;;;;;12.45;8.07;;;;;;;0.17;100.00;96631.63;1026352;28;20058;-68
2021/11/23 01:04:03;;;;;;;12.07;9.13;;;;;;;0.17;100.00;96629.03;1018588;29;20625;-68
2021/11/23 01:04:34;;;;;;;13.25;8.85;;;;;;;0.10;100.00;96623.75;1019450;28;20031;-68
2021/11/23 01:05:05;;;;;;;10.45;7.75;;;;;;;0.11;100.00;96635.69;1022607;29;20035;-69
2021/11/23 01:05:35;;;;;;;11.98;8.68;;;;;;;0.15;100.00;96639.50;1022224;29;20023;-68
2021/11/23 01:06:06;;;;;;;13.55;8.82;;;;;;;0.14;100.00;96631.97;1018503;28;20130;-67
2021/11/23 01:06:36;;;;;;;13.63;8.55;;;;;;;0.05;100.00;96620.88;1018683;29;20141;-68
2021/11/23 01:07:07;;;;;;;10.95;7.70;;;;;;;0.12;100.00;96632.13;1014449;29;20093;-67
2021/11/23 01:07:37;;;;;;;10.90;7.68;;;;;;;0.11;100.00;96640.84;1014817;29;20446;-67
2021/11/23 01:08:08;;;;;;;12.10;8.50;;;;;;;0.11;100.00;96630.53;1018078;28;20066;-68
2021/11/23 01:08:41;;;;;;;12.02;8.00;;;;;;;0.11;100.00;96640.84;1026482;28;20330;-68
2021/11/23 01:09:12;;;;;;;13.76;8.96;;;;;;;0.12;100.00;96639.06;1030614;28;20038;-68
2021/11/23 01:09:42;;;;;;;11.23;8.40;;;;;;;0.11;100.00;96630.53;1022046;28;20054;-69
2021/11/23 01:10:13;;;;;;;12.32;9.32;;;;;;;0.13;100.00;96644.03;1022376;29;20394;-68
2021/11/23 01:10:44;;;;;;;10.13;7.78;;;;;;;0.14;100.00;96644.84;1018763;29;20531;-69
2021/11/23 01:11:15;;;;;;;11.80;8.65;;;;;;;0.09;100.00;96626.50;1025776;28;20019;-68
2021/11/23 01:11:46;;;;;;;14.32;7.96;;;;;;;0.07;100.00;96623.28;1022367;29;20046;-68
2021/11/23 01:12:16;;;;;;;11.02;8.30;;;;;;;0.03;100.00;96630.56;1022315;29;20546;-68
2021/11/23 01:12:48;;;;;;;12.90;8.60;;;;;;;0.11;100.00;96643.41;1022217;29;20027;-68
2021/11/23 01:13:18;;;;;;;12.54;8.92;;;;;;;0.11;100.00;96651.16;1022242;28;20087;-67
2021/11/23 01:13:49;;;;;;;12.23;8.68;;;;;;;0.07;100.00;96639.59;1022485;28;20042;-68
2021/11/23 01:14:19;;;;;;;11.77;8.23;;;;;;;0.12;100.00;96646.81;1019122;28;20479;-69
2021/11/23 01:14:50;;;;;;;11.93;8.30;;;;;;;0.12;100.00;96645.00;1024177;28;20054;-68
2021/11/23 01:15:21;;;;;;;14.22;9.20;;;;;;;0.08;100.00;96641.19;1022954;29;20032;-67
2021/11/23 01:15:51;;;;;;;13.88;7.85;;;;;;;0.07;100.00;96639.59;1023547;28;20028;-67
2021/11/23 01:16:22;;;;;;;9.90;7.80;;;;;;;0.09;100.00;96647.16;1031473;28;20470;-69
2021/11/23 01:16:52;;;;;;;12.70;8.52;;;;;;;0.09;100.00;96641.97;1035186;28;20061;-68
2021/11/23 01:17:23;;;;;;;10.57;7.65;;;;;;;0.10;100.00;96636.66;1035244;28;20041;-68
2021/11/23 01:17:53;;;;;;;11.93;8.18;;;;;;;0.03;100.00;96646.06;1035016;28;20061;-67
2021/11/23 01:18:24;;;;;;;12.52;7.68;;;;;;;0.07;100.00;96649.09;1025974;28;20616;-68
2021/11/23 01:18:54;;;;;;;12.10;8.35;;;;;;;0.00;100.00;96643.84;1027250;28;20027;-68
2021/11/23 01:19:26;;;;;;;11.63;8.63;;;;;;;0.05;100.00;96641.53;1019081;29;20032;-68
2021/11/23 01:19:57;;;;;;;15.52;8.36;;;;;;;0.07;100.00;96639.59;1019617;28;20511;-68
2021/11/23 01:20:27;;;;;;;11.60;8.35;;;;;;;-0.05;100.00;96626.28;1022859;29;20027;-68
2021/11/23 01:20:59;;;;;;;11.10;8.15;;;;;;;0.05;100.00;96649.28;1023222;28;20038;-68
2021/11/23 01:21:29;;;;;;;12.50;8.76;;;;;;;0.04;100.00;96645.09;1026701;28;20034;-68
2021/11/23 01:22:01;;;;;;;12.60;8.38;;;;;;;-0.01;100.00;96637.84;1026922;28;20037;-68
2021/11/23 01:22:31;;;;;;;12.78;8.88;;;;;;;0.08;100.00;96632.66;1023168;29;20515;-68
2021/11/23 01:23:02;;;;;;;11.30;7.90;;;;;;;0.06;100.00;96643.13;1019539;28;20062;-68
2021/11/23 01:23:33;;;;;;;10.30;8.38;;;;;;;0.06;100.00;96637.97;1030239;28;20113;-69
2021/11/23 01:24:04;;;;;;;11.77;7.97;;;;;;;0.08;100.00;96641.19;1031286;28;20269;-68
2021/11/23 01:24:34;;;;;;;11.48;8.78;;;;;;;0.08;100.00;96638.59;1030922;28;20026;-68
2021/11/23 01:25:05;;;;;;;12.68;9.05;;;;;;;0.08;100.00;96640.38;1026868;28;20735;-67
2021/11/23 01:25:36;;;;;;;13.75;9.00;;;;;;;0.05;100.00;96628.63;1023418;29;20035;-68
2021/11/23 01:26:06;;;;;;;11.68;8.32;;;;;;;0.09;100.00;96642.78;1019350;29;20028;-68
2021/11/23 01:26:37;;;;;;;12.43;8.35;;;;;;;0.03;100.00;96638.31;1022595;28;20140;-68
2021/11/23 01:27:07;;;;;;;18.02;9.40;;;;;;;0.03;100.00;96629.78;1019031;29;20099;-68
2021/11/23 01:27:38;;;;;;;10.50;7.90;;;;;;;0.00;100.00;96628.38;1027139;28;20027;-68
2021/11/23 01:28:08;;;;;;;10.95;7.75;;;;;;;0.05;100.00;96641.53;1023537;29;20035;-68
2021/11/23 01:28:39;;;;;;;11.18;7.65;;;;;;;0.03;100.00;96640.91;1023137;28;20588;-68
2021/11/23 01:29:10;;;;;;;13.26;8.50;;;;;;;0.07;100.00;96639.59;1022776;29;20027;-68
2021/11/23 01:29:41;;;;;;;12.82;9.23;;;;;;;0.03;100.00;96633.16;1019568;29;20032;-68
2021/11/23 01:30:12;;;;;;;13.05;8.80;;;;;;;0.10;100.00;96639.25;1023342;28;20070;-68
2021/11/23 01:30:43;;;;;;;11.65;8.90;;;;;;;0.04;100.00;96626.25;1027065;28;20027;-68
2021/11/23 01:31:13;;;;;;;10.66;8.12;;;;;;;0.04;100.00;96645.09;1026502;28;20030;-68
2021/11/23 01:31:44;;;;;;;10.93;7.93;;;;;;;0.04;100.00;96639.94;1025842;28;20137;-68
2021/11/23 01:32:14;;;;;;;15.75;8.80;;;;;;;0.04;100.00;96634.78;1023477;29;20079;-68
2021/11/23 01:32:45;;;;;;;11.77;8.25;;;;;;;0.05;100.00;96638.94;1023046;28;20027;-68
2021/11/23 01:33:16;;;;;;;9.55;7.30;;;;;;;0.02;100.00;96625.59;1019127;29;20019;-68
2021/11/23 01:33:51;;;;;;;13.34;8.44;;;;;;;0.05;100.00;96633.00;1026916;28;20033;-69
2021/11/23 01:34:21;;;;;;;11.82;8.00;;;;;;;0.05;100.00;96641.53;1027166;28;20022;-68
2021/11/23 01:34:52;;;;;;;9.98;7.47;;;;;;;-0.04;100.00;96638.19;1027131;28;20038;-68
2021/11/23 01:35:22;;;;;;;10.77;7.88;;;;;;;-0.02;100.00;96640.63;1022087;28;20034;-68
2021/11/23 01:35:53;;;;;;;11.90;8.40;;;;;;;0.00;100.00;96628.38;1019101;29;20050;-68
2021/11/23 01:36:23;;;;;;;13.00;8.82;;;;;;;0.02;100.00;96634.13;1027346;28;20022;-68
2021/11/23 01:36:54;;;;;;;14.45;8.88;;;;;;;-0.01;100.00;96626.75;1024653;28;20034;-69
2021/11/23 01:37:24;;;;;;;12.18;8.10;;;;;;;0.05;100.00;96628.63;1018973;29;20479;-68
2021/11/23 01:37:55;;;;;;;12.38;8.50;;;;;;;0.03;100.00;96638.31;1023367;29;20190;-68
2021/11/23 01:38:26;;;;;;;11.52;8.30;;;;;;;0.06;100.00;96635.38;1022626;28;20057;-68
2021/11/23 01:38:56;;;;;;;13.50;8.73;;;;;;;0.04;100.00;96629.63;1023433;28;20027;-69
2021/11/23 01:39:27;;;;;;;12.20;8.38;;;;;;;0.04;100.00;96633.97;1022867;29;20051;-68
2021/11/23 01:39:57;;;;;;;12.48;8.25;;;;;;;-0.01;100.00;96634.47;1026983;28;20533;-69
2021/11/23 01:40:28;;;;;;;12.68;8.80;;;;;;;-0.01;100.00;96634.47;1023150;28;20023;-68
2021/11/23 01:40:58;;;;;;;15.02;8.43;;;;;;;0.01;100.00;96629.97;1022353;28;20019;-68
2021/11/23 01:41:29;;;;;;;11.93;8.20;;;;;;;-0.10;100.00;96617.47;1022513;29;20078;-68
2021/11/23 01:41:59;;;;;;;10.77;8.40;;;;;;;-0.02;100.00;96631.09;1015074;29;20071;-68
2021/11/23 01:42:30;;;;;;;11.55;7.88;;;;;;;0.01;100.00;96637.69;1022917;29;20019;-68
2021/11/23 01:43:05;;;;;;;13.98;8.80;;;;;;;-0.01;100.00;96629.31;1027245;28;20023;-68
2021/11/23 01:43:36;;;;;;;14.04;8.60;;;;;;;-0.01;100.00;96632.69;1022439;28;20034;-68
2021/11/23 01:44:06;;;;;;;12.10;8.15;;;;;;;0.02;100.00;96636.72;1018020;29;20521;-68
2021/11/23 01:44:37;;;;;;;11.73;7.85;;;;;;;-0.03;100.00;96626.13;1023235;29;20469;-68
2021/11/23 01:45:08;;;;;;;12.88;9.02;;;;;;;0.02;100.00;96639.28;1029119;28;20201;-68
2021/11/23 01:45:39;;;;;;;10.60;7.85;;;;;;;-0.04;100.00;96621.94;1033159;28;20029;-68
2021/11/23 01:46:10;;;;;;;11.50;8.20;;;;;;;-0.03;100.00;96629.50;1026885;28;20023;-68
2021/11/23 01:46:40;;;;;;;10.77;7.88;;;;;;;-0.05;100.00;96628.06;1023434;28;20055;-67
2021/11/23 01:47:11;;;;;;;10.88;7.43;;;;;;;-0.02;100.00;96635.47;1023947;28;20134;-68
2021/11/23 01:47:41;;;;;;;11.98;7.70;;;;;;;-0.06;100.00;96635.00;1027067;28;20031;-67
2021/11/23 01:48:12;;;;;;;11.27;8.18;;;;;;;-0.08;100.00;96628.41;1030936;28;20045;-67
2021/11/23 01:48:42;;;;;;;10.63;7.45;;;;;;;-0.10;100.00;96633.75;1031044;28;20038;-66
2021/11/23 01:49:13;;;;;;;10.15;7.45;;;;;;;-0.08;100.00;96631.00;1034678;28;20036;-68
2021/11/23 01:49:44;;;;;;;9.43;7.72;;;;;;;-0.07;100.00;96632.59;1030790;28;20437;-68
2021/11/23 01:50:15;;;;;;;13.10;8.32;;;;;;;-0.11;100.00;96621.81;1027359;28;20066;-68
2021/11/23 01:50:45;;;;;;;10.90;7.93;;;;;;;-0.08;100.00;96631.78;1022156;28;20031;-67
2021/11/23 01:51:16;;;;;;;11.52;8.30;;;;;;;-0.09;100.00;96625.03;1022753;28;20103;-68
2021/11/23 01:51:46;;;;;;;13.18;8.25;;;;;;;-0.13;100.00;96615.25;1018707;29;20167;-68
2021/11/23 01:52:17;;;;;;;11.57;7.78;;;;;;;-0.06;100.00;96632.44;1018557;29;20028;-69
2021/11/23 01:52:47;;;;;;;9.95;7.82;;;;;;;-0.08;100.00;96631.78;1018713;28;20035;-68
2021/11/23 01:53:18;;;;;;;13.25;8.85;;;;;;;-0.06;100.00;96629.06;1027098;28;20082;-68
2021/11/23 01:53:48;;;;;;;12.18;8.25;;;;;;;-0.10;100.00;96625.19;1022792;28;20121;-68
2021/11/23 01:54:19;;;;;;;11.48;8.80;;;;;;;-0.07;100.00;96630.00;1022837;28;20070;-68
2021/11/23 01:54:51;;;;;;;11.57;8.15;;;;;;;-0.09;100.00;96624.25;1015326;29;20024;-68
2021/11/23 01:55:21;;;;;;;12.72;7.70;;;;;;;-0.08;100.00;96623.25;1015954;29;20100;-69
2021/11/23 01:55:52;;;;;;;10.73;7.93;;;;;;;-0.07;100.00;96632.59;1013728;28;20139;-67
2021/11/23 01:56:22;;;;;;;11.32;8.48;;;;;;;-0.09;100.00;96631.97;1017651;29;20035;-68
2021/11/23 01:56:53;;;;;;;12.48;8.57;;;;;;;-0.06;100.00;96636.78;1011710;29;20096;-68
2021/11/23 01:57:23;;;;;;;11.73;8.35;;;;;;;-0.09;100.00;96632.78;1019284;29;20082;-69
2021/11/23 01:57:54;;;;;;;11.27;8.30;;;;;;;-0.14;100.00;96626.53;1021274;28;20070;-69
2021/11/23 01:58:24;;;;;;;10.70;7.53;;;;;;;-0.10;100.00;96631.19;1015691;28;20499;-70
2021/11/23 01:58:55;;;;;;;11.35;8.27;;;;;;;-0.11;100.00;96633.91;1027162;28;20022;-68
2021/11/23 01:59:25;;;;;;;11.55;8.20;;;;;;;-0.12;100.00;96635.69;1020446;28;20032;-69
2021/11/23 01:59:56;;;;;;;16.85;10.10;;;;;;;-0.13;100.00;96628.16;1023361;28;20031;-68
2021/11/23 02:00:27;;;;;;;11.88;8.55;;;;;;;-0.16;100.00;96631.88;1027398;28;20482;-68
2021/11/23 02:00:57;;;;;;;10.82;8.02;;;;;;;-0.16;100.00;96625.91;1019195;29;20127;-68
2021/11/23 02:01:28;;;;;;;13.30;8.48;;;;;;;-0.19;100.00;96618.50;1025428;28;20023;-68
2021/11/23 02:01:59;;;;;;;12.85;8.88;;;;;;;-0.17;100.00;96626.88;1023300;29;20507;-68
2021/11/23 02:02:29;;;;;;;12.23;8.55;;;;;;;-0.19;100.00;96624.47;1023616;29;20024;-67
2021/11/23 02:03:00;;;;;;;16.40;8.98;;;;;;;-0.21;100.00;96625.63;1023199;28;20063;-69
2021/11/23 02:03:30;;;;;;;11.57;8.48;;;;;;;-0.20;100.00;96635.78;1027708;28;20022;-68
2021/11/23 02:04:01;;;;;;;11.18;7.82;;;;;;;-0.20;100.00;96633.19;1035499;28;20026;-68
2021/11/23 02:04:31;;;;;;;12.38;8.65;;;;;;;-0.20;100.00;96637.53;1035401;28;20050;-69
2021/11/23 02:05:02;;;;;;;11.88;8.73;;;;;;;-0.25;100.00;96631.13;1031030;28;20030;-68
2021/11/23 02:05:33;;;;;;;13.13;8.38;;;;;;;-0.27;100.00;96635.66;1023259;29;20092;-69
2021/11/23 02:06:05;;;;;;;11.12;8.26;;;;;;;-0.36;100.00;96625.56;1019198;29;20958;-70
2021/11/23 02:06:35;;;;;;;12.00;7.98;;;;;;;-0.39;100.00;96629.28;1021698;28;20028;-68
2021/11/23 02:07:06;;;;;;;12.32;9.10;;;;;;;-0.45;100.00;96624.00;1023519;28;20415;-68
2021/11/23 02:07:37;;;;;;;11.60;8.38;;;;;;;-0.41;100.00;96633.81;1023593;29;20113;-69
2021/11/23 02:08:10;;;;;;;12.90;8.30;;;;;;;-0.41;100.00;96630.41;1023566;28;20058;-68
2021/11/23 02:08:40;;;;;;;13.94;8.76;;;;;;;-0.42;100.00;96634.78;1031267;28;20026;-68
2021/11/23 02:09:11;;;;;;;12.23;8.57;;;;;;;-0.42;100.00;96632.19;1031719;28;20057;-68
2021/11/23 02:09:41;;;;;;;12.20;8.48;;;;;;;-0.44;100.00;96628.19;1023153;29;20091;-67
2021/11/23 02:10:12;;;;;;;13.27;8.43;;;;;;;-0.52;100.00;96622.13;1023646;28;20046;-68
2021/11/23 02:10:43;;;;;;;11.52;8.15;;;;;;;-0.47;100.00;96634.47;1027498;28;20030;-69
2021/11/23 02:11:13;;;;;;;13.00;9.25;;;;;;;-0.54;100.00;96625.81;1026924;28;20031;-67
2021/11/23 02:11:44;;;;;;;12.98;8.57;;;;;;;-0.59;100.00;96620.41;1027238;28;20031;-69
2021/11/23 02:12:15;;;;;;;12.02;8.02;;;;;;;-0.54;100.00;96630.97;1011606;29;20480;-68
2021/11/23 02:12:45;;;;;;;16.75;8.77;;;;;;;-0.63;100.00;96616.56;1011530;29;20060;-68
2021/11/23 02:13:15;;;;;;;14.38;9.25;;;;;;;-0.55;100.00;96634.53;1020703;28;20526;-68
2021/11/23 02:13:46;;;;;;;11.48;8.82;;;;;;;-0.57;100.00;96626.16;1031330;28;20058;-68
2021/11/23 02:14:16;;;;;;;13.32;8.93;;;;;;;-0.68;100.00;96616.25;1031488;28;20030;-68
2021/11/23 02:14:47;;;;;;;14.30;9.05;;;;;;;-0.62;100.00;96633.63;1023217;28;20874;-67
2021/11/23 02:15:18;;;;;;;14.13;8.90;;;;;;;-0.63;100.00;96626.88;1015552;29;20063;-68
2021/11/23 02:15:49;;;;;;;15.68;8.82;;;;;;;-0.67;100.00;96628.16;1015574;29;20951;-68
2021/11/23 02:16:20;;;;;;;16.28;9.98;;;;;;;-0.69;100.00;96638.66;1019660;29;20035;-68
2021/11/23 02:16:51;;;;;;;12.26;8.20;;;;;;;-0.79;100.00;96620.81;1023407;28;20034;-68
2021/11/23 02:17:21;;;;;;;18.48;9.73;;;;;;;-0.72;100.00;96634.63;1027340;28;20022;-69
2021/11/23 02:17:52;;;;;;;12.88;8.90;;;;;;;-0.77;100.00;96634.34;1027308;28;20054;-68
2021/11/23 02:18:23;;;;;;;14.77;8.88;;;;;;;-0.76;100.00;96640.31;1023375;28;20019;-68
2021/11/23 02:18:54;;;;;;;14.72;9.86;;;;;;;-0.79;100.00;96638.84;1027444;28;20502;-68
2021/11/23 02:19:24;;;;;;;14.15;9.55;;;;;;;-0.81;100.00;96630.47;1027275;28;20033;-68
2021/11/23 02:19:55;;;;;;;11.57;8.77;;;;;;;-0.78;100.00;96634.50;1031477;28;20604;-67
2021/11/23 02:20:26;;;;;;;16.20;10.30;;;;;;;-0.78;100.00;96635.31;1035383;28;20844;-69
2021/11/23 02:20:57;;;;;;;15.05;9.52;;;;;;;-0.79;100.00;96638.84;1030699;28;20029;-67
2021/11/23 02:21:27;;;;;;;12.90;9.48;;;;;;;-0.81;100.00;96640.00;1027106;28;20038;-68
2021/11/23 02:21:58;;;;;;;14.52;8.70;;;;;;;-0.84;100.00;96641.16;1023076;28;20020;-68